Terminal Aerodrome Forecast
Issued by NWS

Home | Current Version | Previous Version | Text Only | Print | Product List | Glossary On
Versions: 1 2 3 4 5 6 7 8 9 10 11 12 13 14 15 16
000
FTUS45 KREV 211740
TAFTVL
TAF
KTVL 211740Z 2118/2218 20012G24KT 1/2SM SN FG VV008 WS020/25040KT
     FM212200 20012G20KT 2SM -SHSN SCT008 OVC015
     FM220300 20010KT 4SM -SHSN BKN020 OVC030
     FM220900 19009KT P6SM VCSH BKN030=

USA.gov is the U.S. government's official web portal to all federal, state and local government web resources and services.